createdAt,value
2023-05-15T00:01:27.461Z,11.15
2023-05-15T00:03:55.094Z,10.40
2023-05-15T00:06:21.907Z,9.50
2023-05-15T00:08:48.413Z,10.88
2023-05-15T00:11:14.927Z,11.70
2023-05-15T00:13:41.476Z,11.90
2023-05-15T00:16:08.577Z,11.38
2023-05-15T00:18:35.637Z,13.18
2023-05-15T00:21:02.240Z,13.00
2023-05-15T00:23:28.811Z,14.43
2023-05-15T00:25:55.401Z,14.30
2023-05-15T00:28:21.983Z,13.00
2023-05-15T00:30:48.581Z,13.82
2023-05-15T00:33:15.695Z,15.23
2023-05-15T00:35:42.293Z,14.75
2023-05-15T00:38:08.753Z,14.57
2023-05-15T00:40:36.464Z,16.27
2023-05-15T00:43:03.769Z,16.63
2023-05-15T00:45:30.451Z,17.60
2023-05-15T00:47:58.590Z,16.42
2023-05-15T00:50:25.630Z,17.25
2023-05-15T00:52:52.635Z,18.58
2023-05-15T00:55:19.687Z,19.85
2023-05-15T00:57:47.807Z,17.75
2023-05-15T01:00:16.868Z,17.33
2023-05-15T01:02:44.339Z,15.30
2023-05-15T01:05:11.064Z,18.23
2023-05-15T01:07:45.999Z,16.17
2023-05-15T01:10:13.011Z,17.20
2023-05-15T01:12:40.543Z,17.83
2023-05-15T01:15:07.439Z,15.93
2023-05-15T01:17:33.982Z,18.58
2023-05-15T01:20:01.009Z,18.50
2023-05-15T01:22:42.707Z,18.33
2023-05-15T01:25:18.502Z,16.95
2023-05-15T01:27:49.245Z,18.23
2023-05-15T01:30:23.414Z,18.38
2023-05-15T01:32:55.940Z,20.35
2023-05-15T01:35:41.436Z,17.48
2023-05-15T01:38:22.254Z,17.55
2023-05-15T01:40:53.966Z,19.80
2023-05-15T01:43:23.039Z,20.42
2023-05-15T01:45:49.562Z,19.88
2023-05-15T01:48:17.693Z,21.27
2023-05-15T01:50:45.746Z,21.88
2023-05-15T01:53:12.657Z,22.50
2023-05-15T01:55:39.421Z,22.58
2023-05-15T01:58:06.646Z,23.30
2023-05-15T02:00:33.326Z,24.00
2023-05-15T02:03:00.397Z,25.90
2023-05-15T02:05:27.647Z,28.02
2023-05-15T02:07:54.845Z,27.40
2023-05-15T02:10:22.267Z,24.85
2023-05-15T02:12:50.129Z,23.83
2023-05-15T02:15:17.296Z,24.10
2023-05-15T02:17:44.019Z,24.13
2023-05-15T02:20:10.671Z,24.75
2023-05-15T02:22:37.183Z,23.80
2023-05-15T02:25:03.941Z,27.17
2023-05-15T02:27:45.581Z,26.58
2023-05-15T02:30:17.955Z,27.35
2023-05-15T02:33:23.723Z,27.63
2023-05-15T02:35:57.613Z,25.55
2023-05-15T02:38:29.611Z,26.55
2023-05-15T02:40:57.111Z,26.85
2023-05-15T02:43:24.067Z,25.58
2023-05-15T02:45:51.249Z,28.42
2023-05-15T02:48:17.809Z,25.55
2023-05-15T02:50:44.421Z,27.70
2023-05-15T02:53:11.039Z,28.17
2023-05-15T02:55:38.729Z,34.17
2023-05-15T02:58:05.348Z,37.90
2023-05-15T03:00:31.878Z,36.38
2023-05-15T03:02:58.513Z,37.47
2023-05-15T03:05:25.271Z,39.60
2023-05-15T03:07:54.043Z,41.28
2023-05-15T03:10:23.687Z,39.97
2023-05-15T03:12:50.343Z,42.22
2023-05-15T03:15:17.185Z,52.90
2023-05-15T03:17:43.716Z,52.08
2023-05-15T03:20:11.585Z,53.08
2023-05-15T03:22:38.424Z,56.17
2023-05-15T03:25:09.260Z,58.13
2023-05-15T03:27:38.846Z,58.85
2023-05-15T03:30:10.911Z,55.10
2023-05-15T03:32:45.720Z,62.28
2023-05-15T03:37:51.081Z,58.78
2023-05-15T03:40:24.403Z,61.38
2023-05-15T03:43:01.924Z,60.20
2023-05-15T03:45:37.321Z,60.28
2023-05-15T03:48:07.356Z,60.45
2023-05-15T03:50:45.107Z,59.58
2023-05-15T03:53:16.613Z,63.03
2023-05-15T03:55:50.588Z,59.60
2023-05-15T03:58:18.314Z,64.85
2023-05-15T04:00:47.760Z,63.08
2023-05-15T04:03:24.227Z,60.65
2023-05-15T04:05:55.889Z,63.03
2023-05-15T04:08:29.179Z,61.05
2023-05-15T04:11:23.184Z,60.40
2023-05-15T04:14:06.235Z,62.63
2023-05-15T04:16:46.564Z,64.63
2023-05-15T04:19:19.115Z,64.95
2023-05-15T04:21:59.477Z,61.70
2023-05-15T04:24:41.428Z,63.40
2023-05-15T04:27:10.272Z,63.95
2023-05-15T04:29:41.301Z,62.80
2023-05-15T04:34:37.486Z,65.78
2023-05-15T04:37:09.686Z,65.50
2023-05-15T04:39:40.287Z,63.75
2023-05-15T04:42:10.785Z,69.55
2023-05-15T04:47:23.567Z,67.05
2023-05-15T04:49:56.972Z,68.85
2023-05-15T04:52:31.043Z,67.97
2023-05-15T04:55:02.446Z,64.60
2023-05-15T04:57:32.622Z,65.55
2023-05-15T05:00:00.037Z,64.45
2023-05-15T05:02:39.171Z,62.50
2023-05-15T05:05:07.418Z,61.28
2023-05-15T05:07:35.025Z,66.65
2023-05-15T05:10:02.281Z,63.88
2023-05-15T05:12:30.991Z,61.88
2023-05-15T05:14:57.460Z,60.70
2023-05-15T05:17:24.111Z,58.30
2023-05-15T05:19:50.642Z,62.97
2023-05-15T05:22:17.055Z,62.88
2023-05-15T05:24:43.574Z,60.78
2023-05-15T05:27:10.188Z,61.35
2023-05-15T05:29:36.743Z,65.68
2023-05-15T05:32:03.398Z,67.20
2023-05-15T05:34:29.916Z,69.10
2023-05-15T05:36:56.457Z,66.10
2023-05-15T05:39:22.964Z,63.25
2023-05-15T05:41:49.528Z,64.53
2023-05-15T05:44:16.174Z,65.53
2023-05-15T05:46:42.879Z,62.28
2023-05-15T05:49:09.494Z,64.57
2023-05-15T05:51:39.212Z,60.75
2023-05-15T05:54:05.803Z,61.95
2023-05-15T05:56:32.325Z,59.38
2023-05-15T05:59:01.722Z,57.47
2023-05-15T06:01:28.344Z,53.50
2023-05-15T06:03:56.127Z,55.13
2023-05-15T06:06:23.010Z,50.80
2023-05-15T06:08:49.735Z,46.42
2023-05-15T06:11:16.452Z,45.88
2023-05-15T06:13:43.590Z,45.00
2023-05-15T06:16:10.103Z,45.65
2023-05-15T06:18:36.861Z,51.83
2023-05-15T06:21:03.613Z,49.35
2023-05-15T06:23:32.292Z,52.60
2023-05-15T06:25:58.868Z,54.33
2023-05-15T06:28:25.364Z,52.47
2023-05-15T06:30:52.252Z,53.45
2023-05-15T06:33:18.833Z,52.67
2023-05-15T06:35:45.575Z,56.85
2023-05-15T06:38:12.332Z,58.72
2023-05-15T06:40:38.836Z,59.65
2023-05-15T06:43:05.588Z,58.15
2023-05-15T06:45:32.072Z,59.53
2023-05-15T06:48:01.462Z,59.60
2023-05-15T06:50:28.399Z,63.20
2023-05-15T06:52:54.911Z,59.38
2023-05-15T06:55:21.467Z,61.13
2023-05-15T06:57:47.983Z,61.65
2023-05-15T07:00:15.025Z,65.43
2023-05-15T07:02:41.726Z,63.60
2023-05-15T07:05:08.797Z,65.43
2023-05-15T07:07:35.540Z,67.50
2023-05-15T07:10:02.115Z,62.78
2023-05-15T07:12:28.585Z,59.67
2023-05-15T07:14:55.065Z,61.05
2023-05-15T07:17:21.493Z,60.50
2023-05-15T07:19:48.020Z,57.90
2023-05-15T07:22:14.545Z,55.35
2023-05-15T07:24:41.088Z,56.38
2023-05-15T07:27:07.725Z,57.78
2023-05-15T07:29:34.370Z,55.17
2023-05-15T07:32:01.357Z,59.95
2023-05-15T07:34:28.045Z,56.08
2023-05-15T07:36:54.599Z,55.25
2023-05-15T07:39:21.305Z,53.30
2023-05-15T07:41:48.009Z,52.28
2023-05-15T07:44:14.630Z,51.45
2023-05-15T07:46:41.235Z,50.35
2023-05-15T07:49:07.887Z,49.22
2023-05-15T07:51:34.416Z,43.70
2023-05-15T07:54:01.069Z,46.13
2023-05-15T07:56:28.195Z,42.60
2023-05-15T07:58:54.802Z,41.22
2023-05-15T08:01:21.304Z,41.55
2023-05-15T08:03:47.925Z,37.72
2023-05-15T08:06:14.519Z,39.03
2023-05-15T08:08:41.125Z,35.17
2023-05-15T08:11:07.739Z,36.55
2023-05-15T08:13:34.292Z,34.22
2023-05-15T08:16:00.931Z,34.10
2023-05-15T08:18:27.585Z,32.20
2023-05-15T08:20:54.187Z,33.65
2023-05-15T08:23:20.737Z,31.17
2023-05-15T08:25:47.304Z,31.55
2023-05-15T08:28:14.027Z,31.17
2023-05-15T08:30:40.772Z,31.50
2023-05-15T08:33:07.449Z,28.85
2023-05-15T08:35:34.020Z,27.50
2023-05-15T08:38:00.707Z,25.45
2023-05-15T08:40:38.421Z,22.98
2023-05-15T08:43:13.917Z,21.45
2023-05-15T08:45:41.444Z,20.48
2023-05-15T08:48:11.816Z,21.20
2023-05-15T08:50:40.241Z,20.20
2023-05-15T08:53:06.993Z,20.85
2023-05-15T08:55:33.609Z,19.67
2023-05-15T08:58:00.471Z,20.15
2023-05-15T09:00:27.263Z,20.48
2023-05-15T09:02:54.506Z,20.02
2023-05-15T09:05:21.244Z,18.65
2023-05-15T09:07:48.054Z,18.15
2023-05-15T09:10:15.387Z,19.17
2023-05-15T09:12:46.742Z,19.85
2023-05-15T09:15:18.134Z,18.33
2023-05-15T09:17:45.967Z,18.33
2023-05-15T09:20:26.698Z,17.25
2023-05-15T09:22:53.488Z,18.92
2023-05-15T09:25:39.505Z,19.63
2023-05-15T09:28:07.261Z,19.77
2023-05-15T09:30:34.711Z,19.58
2023-05-15T09:33:03.877Z,19.52
2023-05-15T09:35:38.217Z,19.27
2023-05-15T09:38:10.382Z,19.45
2023-05-15T09:40:38.507Z,18.98
2023-05-15T09:43:05.493Z,18.60
2023-05-15T09:45:32.119Z,19.55
2023-05-15T09:48:05.469Z,19.73
2023-05-15T09:50:35.156Z,20.00
2023-05-15T09:53:01.911Z,19.05
2023-05-15T09:55:32.059Z,17.85
2023-05-15T09:58:08.606Z,18.90
2023-05-15T10:00:35.901Z,18.88
2023-05-15T10:03:03.847Z,18.75
2023-05-15T10:05:42.460Z,17.67
2023-05-15T10:08:11.453Z,17.15
2023-05-15T10:10:38.250Z,18.45
2023-05-15T10:13:06.089Z,17.05
2023-05-15T10:15:33.196Z,17.23
2023-05-15T10:18:00.747Z,17.27
2023-05-15T10:20:27.572Z,16.55
2023-05-15T10:22:56.205Z,16.10
2023-05-15T10:25:42.400Z,17.75
2023-05-15T10:28:10.366Z,16.25
2023-05-15T10:30:37.476Z,15.10
2023-05-15T10:33:07.987Z,15.20
2023-05-15T10:38:04.048Z,15.70
2023-05-15T10:40:30.917Z,15.15
2023-05-15T10:43:00.533Z,13.90
2023-05-15T10:45:28.116Z,12.68
2023-05-15T10:47:55.086Z,13.45
2023-05-15T10:50:21.762Z,12.43
2023-05-15T10:52:52.279Z,12.80
2023-05-15T10:55:19.157Z,12.05
2023-05-15T10:57:47.166Z,11.45
2023-05-15T11:00:23.206Z,11.40
2023-05-15T11:02:53.655Z,12.02
2023-05-15T11:05:20.784Z,12.05
2023-05-15T11:08:15.331Z,12.82
2023-05-15T11:10:41.966Z,11.65
2023-05-15T11:13:08.464Z,11.55
2023-05-15T11:15:42.549Z,9.07
2023-05-15T11:18:12.307Z,8.98
2023-05-15T11:20:52.097Z,9.43
2023-05-15T11:23:22.563Z,8.95
2023-05-15T11:25:58.751Z,9.45
2023-05-15T11:28:26.224Z,10.82
2023-05-15T11:30:54.599Z,10.02
2023-05-15T11:33:21.303Z,10.88
2023-05-15T11:35:48.934Z,11.57
2023-05-15T11:38:20.198Z,10.68
2023-05-15T11:40:52.849Z,11.13
2023-05-15T11:43:26.362Z,10.93
2023-05-15T11:45:58.341Z,11.18
2023-05-15T11:48:31.319Z,9.90
2023-05-15T11:50:57.863Z,10.32
2023-05-15T11:53:24.528Z,9.48
2023-05-15T11:55:52.923Z,11.07
2023-05-15T11:58:21.254Z,11.15
2023-05-15T12:00:49.333Z,10.02
2023-05-15T12:03:24.844Z,9.80
2023-05-15T12:05:59.013Z,9.45
2023-05-15T12:08:31.722Z,9.50
2023-05-15T12:10:58.946Z,10.80
2023-05-15T12:13:25.573Z,10.07
2023-05-15T12:15:52.131Z,10.13
2023-05-15T12:18:18.698Z,10.95
2023-05-15T12:20:46.780Z,10.50
2023-05-15T12:23:17.246Z,10.73
2023-05-15T12:25:45.125Z,9.20
2023-05-15T12:28:12.119Z,9.88
2023-05-15T12:30:39.302Z,9.98
2023-05-15T12:33:07.186Z,10.00
2023-05-15T12:35:35.466Z,9.85
2023-05-15T12:38:05.791Z,8.38
2023-05-15T12:40:36.725Z,8.25
2023-05-15T12:43:07.704Z,8.63
2023-05-15T12:45:36.356Z,7.72
2023-05-15T12:48:03.893Z,8.73
2023-05-15T12:50:32.839Z,10.20
2023-05-15T12:53:03.558Z,8.82
2023-05-15T12:55:32.595Z,9.30
2023-05-15T12:58:04.464Z,8.15
2023-05-15T13:00:32.132Z,9.02
2023-05-15T13:02:59.356Z,8.63
2023-05-15T13:05:26.935Z,7.78
2023-05-15T13:07:53.940Z,8.52
2023-05-15T13:10:23.236Z,8.60
2023-05-15T13:12:54.249Z,10.30
2023-05-15T13:15:43.478Z,9.35
2023-05-15T13:18:10.103Z,8.52
2023-05-15T13:20:39.984Z,8.65
2023-05-15T13:23:07.494Z,9.32
2023-05-15T13:25:34.434Z,8.68
2023-05-15T13:28:03.561Z,8.70
2023-05-15T13:30:30.430Z,8.88
2023-05-15T13:32:57.172Z,8.02
2023-05-15T13:35:23.992Z,9.35
2023-05-15T13:37:50.821Z,8.45
2023-05-15T13:40:17.382Z,8.75
2023-05-15T13:42:44.408Z,8.23
2023-05-15T13:45:15.560Z,9.32
2023-05-15T13:47:43.147Z,7.85
2023-05-15T13:50:11.492Z,7.97
2023-05-15T13:52:38.664Z,8.25
2023-05-15T13:55:06.429Z,8.57
2023-05-15T13:57:33.003Z,8.40
2023-05-15T13:59:59.518Z,9.38
2023-05-15T14:02:26.702Z,8.52
2023-05-15T14:04:54.012Z,10.05
2023-05-15T14:07:23.029Z,9.57
2023-05-15T14:09:50.432Z,8.88
2023-05-15T14:12:17.399Z,9.18
2023-05-15T14:14:46.734Z,9.50
2023-05-15T14:17:13.684Z,9.48
2023-05-15T14:19:40.644Z,8.13
2023-05-15T14:22:07.181Z,9.20
2023-05-15T14:24:33.695Z,8.30
2023-05-15T14:27:00.223Z,8.43
2023-05-15T14:29:26.713Z,8.30
2023-05-15T14:31:53.419Z,9.00
2023-05-15T14:34:22.603Z,9.80
2023-05-15T14:36:49.868Z,9.80
2023-05-15T14:39:16.889Z,10.70
2023-05-15T14:41:43.786Z,9.70
2023-05-15T14:44:10.456Z,9.90
2023-05-15T14:46:38.007Z,10.18
2023-05-15T14:49:05.490Z,10.35
2023-05-15T14:51:32.092Z,12.77
2023-05-15T14:53:58.914Z,15.15
2023-05-15T14:56:25.911Z,15.73
2023-05-15T14:58:53.746Z,16.58
2023-05-15T15:01:20.737Z,15.75
2023-05-15T15:03:48.046Z,15.70
2023-05-15T15:06:15.060Z,14.40
2023-05-15T15:08:41.598Z,13.90
2023-05-15T15:11:08.797Z,12.63
2023-05-15T15:13:35.490Z,12.27
2023-05-15T15:16:02.058Z,11.52
2023-05-15T15:18:28.660Z,12.52
2023-05-15T15:20:55.234Z,12.77
2023-05-15T15:23:22.648Z,10.85
2023-05-15T15:25:49.160Z,11.57
2023-05-15T15:28:15.647Z,10.98
2023-05-15T15:30:42.187Z,11.68
2023-05-15T15:33:08.717Z,10.63
2023-05-15T15:35:35.372Z,12.50
2023-05-15T15:38:01.841Z,11.45
2023-05-15T15:40:29.786Z,11.43
2023-05-15T15:42:56.616Z,11.85
2023-05-15T15:45:23.176Z,12.05
2023-05-15T15:47:49.718Z,13.05
2023-05-15T15:50:16.739Z,11.98
2023-05-15T15:52:43.417Z,12.30
2023-05-15T15:55:10.179Z,11.52
2023-05-15T15:57:36.959Z,11.35
2023-05-15T16:00:04.117Z,11.38
2023-05-15T16:02:30.928Z,11.88
2023-05-15T16:04:57.478Z,10.13
2023-05-15T16:07:24.075Z,10.93
2023-05-15T16:10:03.786Z,9.80
2023-05-15T16:12:37.517Z,12.00
2023-05-15T16:15:13.335Z,11.70
2023-05-15T16:17:51.203Z,12.43
2023-05-15T16:20:17.952Z,12.65
2023-05-15T16:22:44.512Z,13.07
2023-05-15T16:25:11.172Z,12.77
2023-05-15T16:27:37.682Z,13.07
2023-05-15T16:30:04.535Z,12.90
2023-05-15T16:32:31.820Z,11.85
2023-05-15T16:34:58.513Z,12.43
2023-05-15T16:37:25.082Z,11.27
2023-05-15T16:39:51.877Z,13.93
2023-05-15T16:42:18.464Z,14.07
2023-05-15T16:44:44.945Z,14.77
2023-05-15T16:47:11.462Z,15.90
2023-05-15T16:49:38.021Z,15.00
2023-05-15T16:52:04.877Z,14.10
2023-05-15T16:54:31.429Z,14.85
2023-05-15T16:56:58.085Z,14.45
2023-05-15T16:59:24.592Z,14.18
2023-05-15T17:01:51.279Z,13.15
2023-05-15T17:04:17.883Z,14.50
2023-05-15T17:06:44.510Z,14.60
2023-05-15T17:09:11.064Z,12.90
2023-05-15T17:11:37.543Z,12.90
2023-05-15T17:14:04.157Z,13.05
2023-05-15T17:16:30.956Z,12.45
2023-05-15T17:18:57.563Z,13.35
2023-05-15T17:21:24.136Z,11.85
2023-05-15T17:23:52.179Z,12.18
2023-05-15T17:26:19.527Z,13.48
2023-05-15T17:28:46.110Z,10.20
2023-05-15T17:31:12.646Z,10.73
2023-05-15T17:33:39.194Z,10.27
2023-05-15T17:36:05.962Z,10.38
2023-05-15T17:38:32.574Z,10.88
2023-05-15T17:40:59.293Z,10.48
2023-05-15T17:43:25.799Z,9.82
2023-05-15T17:45:52.400Z,13.32
2023-05-15T17:48:18.953Z,13.23
2023-05-15T17:50:45.450Z,10.27
2023-05-15T17:53:12.050Z,10.00
2023-05-15T17:55:38.663Z,9.50
2023-05-15T17:58:05.299Z,10.75
2023-05-15T18:00:31.879Z,10.75
2023-05-15T18:02:58.601Z,10.15
2023-05-15T18:05:25.561Z,9.80
2023-05-15T18:07:52.432Z,11.40
2023-05-15T18:10:18.977Z,11.00
2023-05-15T18:12:45.777Z,11.05
2023-05-15T18:15:12.379Z,11.50
2023-05-15T18:17:39.005Z,11.50
2023-05-15T18:20:06.276Z,10.95
2023-05-15T18:22:32.866Z,15.43
2023-05-15T18:24:59.637Z,15.27
2023-05-15T18:27:26.303Z,15.18
2023-05-15T18:29:52.832Z,15.48
2023-05-15T18:32:19.452Z,18.73
2023-05-15T18:34:47.129Z,18.33
2023-05-15T18:37:13.876Z,18.30
2023-05-15T18:39:41.897Z,17.88
2023-05-15T18:42:08.669Z,18.55
2023-05-15T18:44:35.959Z,18.33
2023-05-15T18:47:02.930Z,16.80
2023-05-15T18:49:29.748Z,15.73
2023-05-15T18:51:56.636Z,16.30
2023-05-15T18:54:23.200Z,17.60
2023-05-15T18:56:49.852Z,18.67
2023-05-15T18:59:16.458Z,17.58
2023-05-15T19:01:43.109Z,15.43
2023-05-15T19:04:09.745Z,17.38
2023-05-15T19:06:36.295Z,16.75
2023-05-15T19:09:03.305Z,17.30
2023-05-15T19:11:29.884Z,15.90
2023-05-15T19:13:56.545Z,16.20
2023-05-15T19:16:26.934Z,16.95
2023-05-15T19:18:54.251Z,17.60
2023-05-15T19:21:21.163Z,17.10
2023-05-15T19:23:51.313Z,16.35
2023-05-15T19:26:17.960Z,15.77
2023-05-15T19:28:44.555Z,15.02
2023-05-15T19:31:20.317Z,16.25
2023-05-15T19:33:47.257Z,16.48
2023-05-15T19:36:14.096Z,15.68
2023-05-15T19:38:40.613Z,16.80
2023-05-15T19:41:08.073Z,14.88
2023-05-15T19:43:36.153Z,14.20
2023-05-15T19:46:03.084Z,14.45
2023-05-15T19:48:29.717Z,14.20
2023-05-15T19:50:56.292Z,13.48
2023-05-15T19:53:23.443Z,12.80
2023-05-15T19:55:50.148Z,13.77
2023-05-15T19:58:16.793Z,12.95
2023-05-15T20:00:44.156Z,13.35
2023-05-15T20:03:10.851Z,14.57
2023-05-15T20:05:43.545Z,13.00
2023-05-15T20:08:10.360Z,12.93
2023-05-15T20:10:36.891Z,12.98
2023-05-15T20:13:03.669Z,14.15
2023-05-15T20:15:31.658Z,13.70
2023-05-15T20:17:58.217Z,13.13
2023-05-15T20:20:25.488Z,12.52
2023-05-15T20:22:52.286Z,13.07
2023-05-15T20:25:18.863Z,12.82
2023-05-15T20:27:45.479Z,15.07
2023-05-15T20:30:12.160Z,11.77
2023-05-15T20:32:38.831Z,12.40
2023-05-15T20:35:06.010Z,11.68
2023-05-15T20:37:33.301Z,11.93
2023-05-15T20:40:00.374Z,11.88
2023-05-15T20:42:27.976Z,11.38
2023-05-15T20:44:54.593Z,11.32
2023-05-15T20:47:21.297Z,11.25
2023-05-15T20:49:47.915Z,11.90
2023-05-15T20:52:14.435Z,10.70
2023-05-15T20:54:41.341Z,10.98
2023-05-15T20:57:07.880Z,9.40
2023-05-15T20:59:34.452Z,8.95
2023-05-15T21:02:01.496Z,10.85
2023-05-15T21:04:30.054Z,10.10
2023-05-15T21:06:56.620Z,10.55
2023-05-15T21:09:23.160Z,9.73
2023-05-15T21:11:49.799Z,10.32
2023-05-15T21:14:16.394Z,9.85
2023-05-15T21:16:43.012Z,10.27
2023-05-15T21:19:09.771Z,9.90
2023-05-15T21:21:36.655Z,9.70
2023-05-15T21:24:04.010Z,9.45
2023-05-15T21:26:31.092Z,9.75
2023-05-15T21:28:59.184Z,9.25
2023-05-15T21:31:26.904Z,10.27
2023-05-15T21:33:54.112Z,10.50
2023-05-15T21:36:21.073Z,9.30
2023-05-15T21:38:48.114Z,8.90
2023-05-15T21:41:15.394Z,8.73
2023-05-15T21:43:47.339Z,9.73
2023-05-15T21:46:14.734Z,8.57
2023-05-15T21:48:41.453Z,8.80
2023-05-15T21:51:09.215Z,9.05
2023-05-15T21:53:36.196Z,9.38
2023-05-15T21:56:03.540Z,10.25
2023-05-15T21:58:32.071Z,9.43
2023-05-15T22:01:00.276Z,9.93
2023-05-15T22:03:27.308Z,9.98
2023-05-15T22:05:54.568Z,10.73
2023-05-15T22:08:23.035Z,10.25
2023-05-15T22:10:49.922Z,10.02
2023-05-15T22:13:18.344Z,9.95
2023-05-15T22:15:45.133Z,10.30
2023-05-15T22:18:13.406Z,10.15
2023-05-15T22:20:40.093Z,11.57
2023-05-15T22:23:07.709Z,10.20
2023-05-15T22:25:35.545Z,10.15
2023-05-15T22:28:02.740Z,9.82
2023-05-15T22:30:37.351Z,10.18
2023-05-15T22:33:04.542Z,9.27
2023-05-15T22:35:31.349Z,9.75
2023-05-15T22:37:59.923Z,10.52
2023-05-15T22:40:27.195Z,10.98
2023-05-15T22:42:54.320Z,11.20
2023-05-15T22:45:21.792Z,11.38
2023-05-15T22:47:52.091Z,12.55
2023-05-15T22:50:18.906Z,11.53
2023-05-15T22:52:45.759Z,10.95
2023-05-15T22:55:13.347Z,12.38
2023-05-15T22:57:40.295Z,13.93
2023-05-15T23:00:08.135Z,15.70
2023-05-15T23:02:38.778Z,18.50
2023-05-15T23:05:06.031Z,19.90
2023-05-15T23:07:32.945Z,20.58
2023-05-15T23:10:00.931Z,20.42
2023-05-15T23:12:28.130Z,19.25
2023-05-15T23:14:54.733Z,19.20
2023-05-15T23:17:26.336Z,18.70
2023-05-15T23:19:53.682Z,20.23
2023-05-15T23:22:21.532Z,19.70
2023-05-15T23:24:49.216Z,20.33
2023-05-15T23:27:16.247Z,21.23
2023-05-15T23:29:45.511Z,22.90
2023-05-15T23:32:14.353Z,21.52
2023-05-15T23:34:41.318Z,21.48
2023-05-15T23:37:08.579Z,21.95
2023-05-15T23:39:36.189Z,22.55
2023-05-15T23:42:02.786Z,22.27
2023-05-15T23:44:29.772Z,20.38
2023-05-15T23:46:57.879Z,19.17
2023-05-15T23:49:25.466Z,21.25
2023-05-15T23:51:52.030Z,19.83
2023-05-15T23:54:19.911Z,19.42
2023-05-15T23:56:47.265Z,18.52
2023-05-15T23:59:14.133Z,17.83
